createdAt,value
2018-05-09T00:01:36.111Z,13.10
2018-05-09T00:06:26.996Z,13.10
2018-05-09T00:11:17.886Z,13.00
2018-05-09T00:16:08.842Z,13.00
2018-05-09T00:20:59.743Z,12.90
2018-05-09T00:25:50.692Z,12.70
2018-05-09T00:30:41.598Z,12.70
2018-05-09T00:35:32.488Z,12.60
2018-05-09T00:40:23.461Z,12.50
2018-05-09T00:45:15.098Z,12.40
2018-05-09T00:50:05.971Z,12.40
2018-05-09T00:54:56.842Z,12.30
2018-05-09T00:59:48.491Z,12.20
2018-05-09T01:04:40.108Z,12.10
2018-05-09T01:09:31.049Z,12.10
2018-05-09T01:14:22.011Z,12.10
2018-05-09T01:19:12.879Z,12.00
2018-05-09T01:24:04.496Z,11.90
2018-05-09T01:28:55.389Z,11.90
2018-05-09T01:33:46.273Z,11.90
2018-05-09T01:38:37.177Z,11.80
2018-05-09T01:43:28.804Z,11.70
2018-05-09T01:48:20.440Z,11.60
2018-05-09T01:53:12.064Z,11.60
2018-05-09T01:58:03.704Z,11.50
2018-05-09T02:02:55.345Z,11.50
2018-05-09T02:07:46.982Z,11.40
2018-05-09T02:12:38.624Z,11.40
2018-05-09T02:17:30.278Z,11.30
2018-05-09T02:22:21.875Z,11.30
2018-05-09T02:27:13.502Z,11.20
2018-05-09T02:32:04.460Z,11.20
2018-05-09T02:36:56.188Z,11.10
2018-05-09T02:41:47.817Z,11.10
2018-05-09T02:46:39.449Z,11.10
2018-05-09T02:51:31.137Z,11.00
2018-05-09T02:56:22.008Z,11.00
2018-05-09T03:01:13.623Z,10.90
2018-05-09T03:06:05.996Z,10.80
2018-05-09T03:10:57.619Z,10.80
2018-05-09T03:15:49.243Z,10.80
2018-05-09T03:20:40.152Z,10.70
2018-05-09T03:25:31.049Z,10.70
2018-05-09T03:30:28.993Z,10.70
2018-05-09T03:35:19.927Z,10.60
2018-05-09T03:40:10.820Z,10.60
2018-05-09T03:45:02.449Z,10.60
2018-05-09T03:49:54.071Z,10.50
2018-05-09T03:54:45.051Z,10.50
2018-05-09T03:59:35.951Z,10.50
2018-05-09T04:04:39.425Z,10.50
2018-05-09T04:09:34.491Z,10.50
2018-05-09T04:14:25.327Z,10.50
2018-05-09T04:19:16.217Z,10.50
2018-05-09T04:24:07.099Z,10.50
2018-05-09T04:28:57.979Z,10.50
2018-05-09T04:33:48.894Z,10.60
2018-05-09T04:38:39.835Z,10.60
2018-05-09T04:43:30.708Z,10.60
2018-05-09T04:48:21.588Z,10.70
2018-05-09T04:53:12.483Z,10.70
2018-05-09T04:58:03.364Z,10.80
2018-05-09T05:02:54.250Z,10.90
2018-05-09T05:07:45.888Z,11.10
2018-05-09T05:12:37.511Z,11.20
2018-05-09T05:17:28.393Z,11.20
2018-05-09T05:22:19.295Z,11.30
2018-05-09T05:27:10.200Z,11.50
2018-05-09T05:32:01.161Z,11.60
2018-05-09T05:36:52.217Z,11.80
2018-05-09T05:41:43.839Z,12.30
2018-05-09T05:46:35.460Z,12.50
2018-05-09T05:51:26.468Z,12.50
2018-05-09T05:56:17.381Z,12.80
2018-05-09T06:01:08.271Z,13.00
2018-05-09T06:05:59.166Z,13.30
2018-05-09T06:10:50.805Z,13.80
2018-05-09T06:15:42.441Z,14.10
2018-05-09T06:20:33.327Z,14.10
2018-05-09T06:25:24.222Z,14.30
2018-05-09T06:30:15.112Z,14.60
2018-05-09T06:35:07.977Z,14.80
2018-05-09T06:39:59.649Z,15.30
2018-05-09T06:44:50.536Z,15.30
2018-05-09T06:49:42.351Z,15.50
2018-05-09T06:54:33.337Z,15.80
2018-05-09T06:59:24.236Z,16.00
2018-05-09T07:04:15.896Z,16.50
2018-05-09T07:09:06.875Z,16.50
2018-05-09T07:13:57.776Z,16.80
2018-05-09T07:18:48.718Z,17.10
2018-05-09T07:23:39.734Z,17.40
2018-05-09T07:28:30.638Z,17.70
2018-05-09T07:33:21.543Z,18.00
2018-05-09T07:38:13.209Z,18.50
2018-05-09T07:43:04.097Z,18.50
2018-05-09T07:47:55.940Z,19.00
2018-05-09T07:52:46.632Z,19.00
2018-05-09T07:57:37.515Z,19.20
2018-05-09T08:02:28.408Z,19.40
2018-05-09T08:07:19.295Z,19.60
2018-05-09T08:12:10.919Z,20.00
2018-05-09T08:17:01.849Z,20.00
2018-05-09T08:21:52.715Z,20.10
2018-05-09T08:26:43.638Z,20.30
2018-05-09T08:31:34.529Z,20.40
2018-05-09T08:36:25.420Z,20.60
2018-05-09T08:41:17.040Z,20.80
2018-05-09T08:46:08.655Z,20.90
2018-05-09T08:50:59.539Z,20.80
2018-05-09T08:55:50.427Z,21.00
2018-05-09T09:00:42.060Z,21.20
2018-05-09T09:05:33.706Z,21.30
2018-05-09T09:10:24.698Z,21.30
2018-05-09T09:15:15.607Z,21.40
2018-05-09T09:20:06.584Z,21.50
2018-05-09T09:24:57.482Z,21.50
2018-05-09T09:29:48.393Z,21.70
2018-05-09T09:34:40.028Z,21.90
2018-05-09T09:39:31.669Z,22.00
2018-05-09T09:44:23.300Z,22.10
2018-05-09T09:49:14.931Z,22.20
2018-05-09T09:54:05.833Z,22.10
2018-05-09T09:58:56.726Z,22.30
2018-05-09T10:03:47.599Z,22.40
2018-05-09T10:08:39.231Z,22.60
2018-05-09T10:13:30.881Z,22.70
2018-05-09T10:18:21.760Z,22.70
2018-05-09T10:23:12.652Z,22.80
2018-05-09T10:28:03.547Z,23.00
2018-05-09T10:32:54.430Z,23.10
2018-05-09T10:37:46.074Z,23.40
2018-05-09T10:42:37.699Z,23.60
2018-05-09T10:47:29.448Z,23.70
2018-05-09T10:52:20.287Z,23.80
2018-05-09T10:57:11.181Z,24.00
2018-05-09T11:02:02.821Z,24.40
2018-05-09T11:06:54.459Z,24.60
2018-05-09T11:11:46.101Z,24.90
2018-05-09T11:16:37.017Z,24.90
2018-05-09T11:21:27.891Z,25.30
2018-05-09T11:26:18.793Z,25.70
2018-05-09T11:31:09.693Z,26.10
2018-05-09T11:36:00.600Z,26.60
2018-05-09T11:40:51.496Z,27.00
2018-05-09T11:45:43.139Z,28.00
2018-05-09T11:50:34.032Z,27.90
2018-05-09T11:55:24.945Z,28.50
2018-05-09T12:00:15.835Z,29.00
2018-05-09T12:05:06.754Z,29.40
2018-05-09T12:09:57.651Z,29.80
2018-05-09T12:14:48.549Z,30.00
2018-05-09T12:19:39.439Z,30.20
2018-05-09T12:24:30.387Z,30.40
2018-05-09T12:29:21.959Z,30.70
2018-05-09T12:34:12.892Z,30.70
2018-05-09T12:39:03.775Z,30.80
2018-05-09T12:43:54.659Z,30.90
2018-05-09T12:48:46.376Z,31.30
2018-05-09T12:53:37.187Z,31.40
2018-05-09T12:58:28.067Z,31.40
2018-05-09T13:03:18.963Z,31.50
2018-05-09T13:08:09.847Z,31.50
2018-05-09T13:13:00.731Z,31.40
2018-05-09T13:17:51.611Z,31.30
2018-05-09T13:22:43.237Z,30.80
2018-05-09T13:27:34.868Z,30.60
2018-05-09T13:32:26.496Z,30.30
2018-05-09T13:37:19.883Z,30.30
2018-05-09T13:42:10.811Z,30.10
2018-05-09T13:47:02.441Z,29.60
2018-05-09T13:51:53.328Z,29.60
2018-05-09T13:56:44.231Z,29.40
2018-05-09T14:01:35.152Z,29.30
2018-05-09T14:06:26.051Z,29.10
2018-05-09T14:11:16.932Z,28.90
2018-05-09T14:16:07.921Z,28.70
2018-05-09T14:20:58.795Z,28.60
2018-05-09T14:25:50.543Z,28.70
2018-05-09T14:30:42.219Z,28.80
2018-05-09T14:35:33.375Z,28.80
2018-05-09T14:40:24.283Z,29.00
2018-05-09T14:45:15.920Z,29.50
2018-05-09T14:50:07.611Z,29.70
2018-05-09T14:54:58.508Z,29.70
2018-05-09T14:59:49.502Z,29.90
2018-05-09T15:04:40.846Z,30.10
2018-05-09T15:09:31.735Z,30.30
2018-05-09T15:14:22.661Z,30.40
2018-05-09T15:19:13.548Z,30.50
2018-05-09T15:24:05.305Z,30.50
2018-05-09T15:28:56.187Z,30.50
2018-05-09T15:33:47.319Z,30.50
2018-05-09T15:38:38.948Z,30.30
2018-05-09T15:43:29.923Z,30.20
2018-05-09T15:48:20.926Z,30.10
2018-05-09T15:53:11.833Z,29.90
2018-05-09T15:58:02.783Z,29.80
2018-05-09T16:02:53.884Z,29.60
2018-05-09T16:07:44.848Z,29.40
2018-05-09T16:12:35.785Z,29.20
2018-05-09T16:17:26.771Z,29.00
2018-05-09T16:22:17.778Z,28.90
2018-05-09T16:27:08.655Z,28.70
2018-05-09T16:31:59.575Z,28.50
2018-05-09T16:36:50.532Z,28.30
2018-05-09T16:41:42.165Z,27.90
2018-05-09T16:46:33.079Z,27.80
2018-05-09T16:51:23.991Z,27.60
2018-05-09T16:56:14.915Z,27.40
2018-05-09T17:01:05.787Z,27.10
2018-05-09T17:05:57.412Z,26.70
2018-05-09T17:10:48.301Z,26.70
2018-05-09T17:15:39.193Z,26.50
2018-05-09T17:20:30.827Z,26.10
2018-05-09T17:25:22.449Z,26.00
2018-05-09T17:30:13.440Z,26.00
2018-05-09T17:35:04.339Z,25.90
2018-05-09T17:39:55.959Z,25.60
2018-05-09T17:44:47.583Z,25.50
2018-05-09T17:49:38.470Z,25.40
2018-05-09T17:54:29.469Z,25.40
2018-05-09T17:59:21.213Z,25.00
2018-05-09T18:04:12.891Z,24.80
2018-05-09T18:09:03.829Z,24.80
2018-05-09T18:13:54.727Z,24.70
2018-05-09T18:18:45.673Z,24.60
2018-05-09T18:23:36.740Z,24.40
2018-05-09T18:28:28.472Z,24.10
2018-05-09T18:33:19.379Z,24.10
2018-05-09T18:38:10.299Z,24.00
2018-05-09T18:43:01.968Z,23.80
2018-05-09T18:47:52.876Z,23.80
2018-05-09T18:52:44.507Z,23.60
2018-05-09T18:57:35.396Z,23.60
2018-05-09T19:02:27.019Z,23.40
2018-05-09T19:07:17.913Z,23.40
2018-05-09T19:12:08.823Z,23.30
2018-05-09T19:16:59.711Z,23.20
2018-05-09T19:21:51.344Z,22.90
2018-05-09T19:26:43.731Z,22.80
2018-05-09T19:31:35.369Z,22.70
2018-05-09T19:36:26.257Z,22.70
2018-05-09T19:41:17.990Z,22.40
2018-05-09T19:46:08.897Z,22.40
2018-05-09T19:50:59.832Z,22.30
2018-05-09T19:55:50.727Z,22.10
2018-05-09T20:00:41.623Z,22.00
2018-05-09T20:05:33.249Z,21.70
2018-05-09T20:10:24.883Z,21.60
2018-05-09T20:15:16.571Z,21.50
2018-05-09T20:20:07.575Z,21.50
2018-05-09T20:24:58.459Z,21.40
2018-05-09T20:29:49.948Z,21.30
2018-05-09T20:34:40.887Z,21.20
2018-05-09T20:39:31.783Z,21.00
2018-05-09T20:44:23.497Z,20.70
2018-05-09T20:49:14.383Z,20.70
2018-05-09T20:54:06.765Z,20.50
2018-05-09T20:58:58.447Z,20.40
2018-05-09T21:03:49.346Z,20.40
2018-05-09T21:08:40.293Z,20.30
2018-05-09T21:13:32.733Z,20.00
2018-05-09T21:18:23.676Z,20.00
2018-05-09T21:23:14.571Z,20.00
2018-05-09T21:28:05.503Z,19.90
2018-05-09T21:32:56.490Z,19.70
2018-05-09T21:37:47.395Z,19.70
2018-05-09T21:42:38.286Z,19.60
2018-05-09T21:47:29.172Z,19.50
2018-05-09T21:52:20.865Z,19.40
2018-05-09T21:57:12.484Z,19.30
2018-05-09T22:02:03.379Z,19.30
2018-05-09T22:06:54.274Z,19.30
2018-05-09T22:11:45.180Z,19.20
2018-05-09T22:16:36.067Z,19.20
2018-05-09T22:21:27.093Z,19.10
2018-05-09T22:26:18.771Z,19.00
2018-05-09T22:31:09.656Z,19.00
2018-05-09T22:36:01.282Z,19.00
2018-05-09T22:40:52.217Z,18.90
2018-05-09T22:45:45.014Z,18.80
2018-05-09T22:50:36.016Z,18.70
2018-05-09T22:55:26.956Z,18.70
2018-05-09T23:00:17.856Z,18.60
2018-05-09T23:05:08.772Z,18.50
2018-05-09T23:10:00.431Z,18.30
2018-05-09T23:14:52.087Z,18.20
2018-05-09T23:19:42.979Z,18.20
2018-05-09T23:24:34.724Z,18.10
2018-05-09T23:29:26.572Z,18.00
2018-05-09T23:34:17.527Z,18.00
2018-05-09T23:39:08.425Z,17.90
2018-05-09T23:43:59.349Z,17.90
2018-05-09T23:48:50.247Z,18.00
2018-05-09T23:53:41.209Z,17.90
2018-05-09T23:58:32.104Z,18.00
